createdAt,value
2022-09-10T04:17:34.747Z,90.48
2022-09-10T04:20:01.534Z,90.56
2022-09-10T04:22:28.123Z,90.84
2022-09-10T04:24:55.870Z,91.38
2022-09-10T04:27:22.340Z,91.36
2022-09-10T04:29:48.819Z,90.67
2022-09-10T04:32:16.651Z,90.31
2022-09-10T04:34:44.427Z,90.36
2022-09-10T04:37:12.710Z,90.11
2022-09-10T04:39:43.452Z,91.24
2022-09-10T04:42:09.917Z,90.78
2022-09-10T04:44:36.713Z,91.66
2022-09-10T04:47:03.154Z,91.16
2022-09-10T04:49:29.593Z,91.51
2022-09-10T04:51:56.242Z,90.62
2022-09-10T04:54:24.005Z,90.73
2022-09-10T04:56:52.167Z,91.37
2022-09-10T04:59:18.683Z,91.84
2022-09-10T05:01:47.582Z,91.88
2022-09-10T05:04:14.225Z,92.45
2022-09-10T05:06:42.111Z,92.59
2022-09-10T05:09:09.706Z,91.60
2022-09-10T05:11:37.249Z,91.89
2022-09-10T05:14:04.141Z,91.98
2022-09-10T05:16:31.886Z,91.10
2022-09-10T05:18:59.076Z,91.27
2022-09-10T05:21:27.022Z,91.85
2022-09-10T05:23:56.006Z,91.85
2022-09-10T05:26:27.788Z,92.80
2022-09-10T05:28:55.708Z,93.04
2022-09-10T05:31:22.561Z,93.36
2022-09-10T05:33:49.131Z,93.46
2022-09-10T05:36:15.574Z,93.38
2022-09-10T05:38:43.384Z,93.54
2022-09-10T05:41:10.780Z,92.78
2022-09-10T05:43:41.878Z,92.50
2022-09-10T05:46:10.364Z,93.28
2022-09-10T05:48:40.985Z,93.46
2022-09-10T05:51:09.946Z,93.69
2022-09-10T05:53:38.188Z,94.46
2022-09-10T05:56:07.456Z,94.01
2022-09-10T05:58:35.797Z,93.79
2022-09-10T06:01:02.619Z,93.89
2022-09-10T06:03:30.894Z,95.57
2022-09-10T06:06:00.860Z,96.19
2022-09-10T06:08:32.161Z,96.02
2022-09-10T06:11:05.759Z,96.62
2022-09-10T06:13:46.027Z,96.85
2022-09-10T06:16:12.833Z,97.41
2022-09-10T06:18:41.226Z,96.80
2022-09-10T06:21:18.685Z,96.60
2022-09-10T06:23:53.562Z,96.53
2022-09-10T06:26:20.740Z,97.07
2022-09-10T06:28:49.819Z,96.70
2022-09-10T06:31:18.053Z,97.50
2022-09-10T06:33:46.827Z,98.18
2022-09-10T06:36:16.511Z,97.28
2022-09-10T06:38:44.921Z,96.46
2022-09-10T06:41:14.179Z,97.64
2022-09-10T06:43:47.718Z,97.63
2022-09-10T06:47:45.974Z,97.75
2022-09-10T06:49:49.374Z,97.48
2022-09-10T06:52:19.566Z,96.40
2022-09-10T06:54:48.130Z,97.31
2022-09-10T06:57:32.011Z,97.36
2022-09-10T07:00:00.988Z,96.08
2022-09-10T07:02:27.554Z,96.25
2022-09-10T07:04:54.057Z,95.83
2022-09-10T07:07:21.071Z,94.99
2022-09-10T07:09:48.990Z,95.24
2022-09-10T07:12:17.224Z,95.17
2022-09-10T07:14:44.589Z,94.41
2022-09-10T07:17:11.835Z,95.59
2022-09-10T07:20:08.519Z,95.80
2022-09-10T07:22:43.769Z,96.12
2022-09-10T07:25:12.708Z,95.02
2022-09-10T07:27:58.042Z,95.90
2022-09-10T07:30:25.580Z,96.64
2022-09-10T07:32:52.301Z,95.70
2022-09-10T07:35:23.206Z,96.18
2022-09-10T07:37:50.556Z,95.06
2022-09-10T07:40:18.807Z,95.42
2022-09-10T07:42:45.725Z,96.94
2022-09-10T07:45:16.062Z,96.21
2022-09-10T07:47:44.575Z,96.65
2022-09-10T07:50:40.567Z,95.97
2022-09-10T07:53:22.801Z,95.88
2022-09-10T07:56:06.342Z,96.52
2022-09-10T07:58:38.199Z,95.93
2022-09-10T08:01:09.294Z,95.22
2022-09-10T08:03:35.939Z,94.31
2022-09-10T08:06:53.383Z,94.89
2022-09-10T08:09:20.345Z,95.37
2022-09-10T08:11:51.918Z,95.77
2022-09-10T08:14:20.874Z,96.42
2022-09-10T08:16:51.118Z,95.90
2022-09-10T08:19:18.049Z,95.61
2022-09-10T08:21:45.550Z,95.76
2022-09-10T08:24:14.517Z,94.87
2022-09-10T08:26:43.759Z,94.45
2022-09-10T08:29:10.334Z,94.54
2022-09-10T08:31:36.947Z,94.04
2022-09-10T08:34:14.418Z,94.22
2022-09-10T08:36:45.242Z,94.05
2022-09-10T08:39:14.074Z,93.43
2022-09-10T09:11:29.235Z,91.85
2022-09-10T09:13:58.841Z,92.10
2022-09-10T09:16:56.378Z,90.89
2022-09-10T09:19:35.019Z,90.85
2022-09-10T09:22:11.730Z,90.26
2022-09-10T09:25:00.666Z,90.12
2022-09-10T09:30:50.563Z,90.35
2022-09-10T09:33:23.158Z,89.39
2022-09-10T09:40:47.098Z,88.20
2022-09-10T09:43:31.325Z,87.42
2022-09-10T09:46:01.109Z,87.51
2022-09-10T09:48:38.793Z,84.12
2022-09-10T09:51:11.650Z,83.47
2022-09-10T09:53:39.531Z,83.30
2022-09-10T09:56:32.863Z,83.91
2022-09-10T09:59:11.905Z,84.68
2022-09-10T10:01:43.354Z,82.91
2022-09-10T10:04:23.990Z,83.18
2022-09-10T10:07:00.030Z,82.73
2022-09-10T10:09:34.471Z,83.24
2022-09-10T10:12:15.120Z,83.19
2022-09-10T10:14:43.523Z,82.26
2022-09-10T10:17:33.717Z,82.45
2022-09-10T10:20:11.124Z,81.69
2022-09-10T10:22:40.034Z,83.35
2022-09-10T10:25:34.045Z,82.24
2022-09-10T10:28:00.864Z,82.22
2022-09-10T10:33:24.174Z,84.07
2022-09-10T10:36:13.594Z,84.57
2022-09-10T10:38:47.439Z,83.33
2022-09-10T10:41:27.998Z,82.97
2022-09-10T10:44:19.255Z,82.68
2022-09-10T10:47:21.293Z,83.14
2022-09-10T10:50:18.303Z,82.85
2022-09-10T10:53:25.493Z,82.20
2022-09-10T10:56:21.779Z,80.48
2022-09-10T10:58:56.837Z,78.23
2022-09-10T11:01:25.849Z,75.75
2022-09-10T11:04:00.564Z,77.83
2022-09-10T11:06:38.842Z,75.53
2022-09-10T11:09:16.359Z,76.78
2022-09-10T11:11:55.184Z,77.28
2022-09-10T11:14:56.055Z,76.25
2022-09-10T11:17:39.528Z,73.95
2022-09-10T11:20:29.942Z,73.58
2022-09-10T11:23:03.593Z,71.97
2022-09-10T11:25:44.791Z,71.69
2022-09-10T11:28:19.550Z,68.57
2022-09-10T11:30:53.513Z,64.56
2022-09-10T11:33:23.313Z,62.98
2022-09-10T11:36:17.259Z,57.46
2022-09-10T11:38:49.974Z,57.99
2022-09-10T11:41:22.271Z,57.89
2022-09-10T11:44:26.532Z,60.14
2022-09-10T11:47:04.516Z,60.75
2022-09-10T11:49:47.701Z,60.57
2022-09-10T11:52:16.583Z,61.53
2022-09-10T11:54:46.764Z,62.83
2022-09-10T11:57:18.575Z,63.19
2022-09-10T12:00:09.540Z,60.58
2022-09-10T12:02:38.982Z,59.43
2022-09-10T12:05:18.274Z,59.27
2022-09-10T12:08:14.746Z,61.18
2022-09-10T12:11:04.702Z,61.45
2022-09-10T12:13:33.407Z,62.96
2022-09-10T12:16:09.642Z,63.42
2022-09-10T12:18:43.091Z,63.38
2022-09-10T12:21:23.288Z,62.58
2022-09-10T12:23:50.022Z,62.74
2022-09-10T12:26:19.850Z,62.84
2022-09-10T12:28:52.627Z,63.61
2022-09-10T12:31:21.530Z,63.51
2022-09-10T12:33:47.908Z,62.48
2022-09-10T12:36:35.372Z,61.42
2022-09-10T12:39:25.973Z,58.36
2022-09-10T12:41:53.130Z,57.22
2022-09-10T12:44:35.008Z,57.18
2022-09-10T12:47:13.691Z,58.61
2022-09-10T12:49:58.423Z,61.24
2022-09-10T12:52:50.927Z,61.59
2022-09-10T12:55:35.579Z,61.26
2022-09-10T12:58:23.402Z,60.82
2022-09-10T13:00:55.982Z,61.28
2022-09-10T13:03:25.490Z,61.56
2022-09-10T13:05:55.412Z,61.06
2022-09-10T13:08:27.660Z,60.02
2022-09-10T13:11:01.144Z,58.42
2022-09-10T13:13:45.290Z,55.98
2022-09-10T13:16:21.663Z,52.33
2022-09-10T13:18:55.012Z,52.53
2022-09-10T13:21:23.251Z,54.73
2022-09-10T13:23:54.826Z,52.92
2022-09-10T13:26:38.239Z,53.01
2022-09-10T13:29:11.303Z,53.34
2022-09-10T13:31:44.916Z,54.92
2022-09-10T13:34:14.441Z,56.35
2022-09-10T13:36:53.178Z,56.47
2022-09-10T13:39:28.878Z,55.72
2022-09-10T13:42:17.175Z,56.15
2022-09-10T13:45:11.489Z,54.94
2022-09-10T13:47:47.260Z,52.66
2022-09-10T13:50:18.642Z,52.80
2022-09-10T13:52:48.214Z,55.01
2022-09-10T13:55:21.496Z,55.21
2022-09-10T13:57:50.663Z,54.38
2022-09-10T14:00:17.057Z,55.31
2022-09-10T14:02:48.064Z,55.26
2022-09-10T14:05:44.377Z,54.42
2022-09-10T14:08:17.719Z,55.22
2022-09-10T14:10:53.356Z,55.47
2022-09-10T14:13:35.452Z,56.11
2022-09-10T14:16:04.736Z,55.84
2022-09-10T14:18:39.618Z,55.28
2022-09-10T14:21:06.544Z,55.94
2022-09-10T14:23:33.390Z,56.28
2022-09-10T14:26:19.308Z,57.08
2022-09-10T14:29:10.147Z,56.81
2022-09-10T14:31:37.270Z,56.54
2022-09-10T14:34:32.982Z,56.11
2022-09-10T14:37:01.041Z,56.92
2022-09-10T14:39:28.019Z,56.13
2022-09-10T14:42:25.086Z,57.33
2022-09-10T14:44:51.636Z,57.48
2022-09-10T14:47:35.673Z,58.59
2022-09-10T14:50:31.289Z,60.03
2022-09-10T14:52:58.698Z,62.75
2022-09-10T14:55:28.264Z,66.90
2022-09-10T14:57:55.689Z,66.21
2022-09-10T15:00:23.521Z,69.41
2022-09-10T15:02:52.313Z,72.42
2022-09-10T15:05:18.866Z,72.16
2022-09-10T15:07:45.475Z,71.68
2022-09-10T15:10:12.105Z,70.66
2022-09-10T15:12:41.587Z,71.71
2022-09-10T15:15:17.197Z,71.10
2022-09-10T15:17:44.110Z,72.42
2022-09-10T15:20:28.169Z,72.41
2022-09-10T15:22:54.754Z,70.87
2022-09-10T15:25:37.460Z,72.38
2022-09-10T15:28:05.328Z,73.57
2022-09-10T15:30:34.605Z,73.79
2022-09-10T15:33:05.268Z,74.32
2022-09-10T15:35:33.715Z,74.68
2022-09-10T15:38:01.693Z,74.04
2022-09-10T15:40:28.182Z,73.17
2022-09-10T15:42:54.627Z,73.91
2022-09-10T15:45:21.225Z,74.04
2022-09-10T15:47:47.669Z,75.50
2022-09-10T15:50:16.083Z,75.16
2022-09-10T15:52:45.937Z,76.39
2022-09-10T15:55:12.725Z,73.94
2022-09-10T15:57:40.323Z,75.73
2022-09-10T16:00:07.407Z,76.08
2022-09-10T16:02:34.211Z,75.98
2022-09-10T16:05:03.795Z,75.43
2022-09-10T16:07:33.447Z,75.88
2022-09-10T16:09:59.856Z,75.63
2022-09-10T16:12:27.372Z,75.57
2022-09-10T16:14:56.693Z,73.59
2022-09-10T16:17:23.324Z,74.22
2022-09-10T16:19:51.253Z,73.24
2022-09-10T16:22:20.663Z,72.52
2022-09-10T16:24:47.403Z,73.87
2022-09-10T16:27:13.972Z,73.90
2022-09-10T16:29:45.733Z,74.16
2022-09-10T16:32:12.813Z,73.88
2022-09-10T16:34:39.648Z,74.79
2022-09-10T16:37:06.975Z,75.45
2022-09-10T16:39:33.528Z,76.55
2022-09-10T16:42:00.061Z,79.18
2022-09-10T16:44:28.330Z,78.82
2022-09-10T16:46:57.443Z,79.55
2022-09-10T16:49:23.996Z,80.94
2022-09-10T16:51:50.681Z,80.83
2022-09-10T16:54:22.313Z,83.11
2022-09-10T16:56:50.147Z,83.74
2022-09-10T16:59:22.455Z,84.23
2022-09-10T17:01:50.201Z,82.33
2022-09-10T17:04:22.479Z,82.98
2022-09-10T17:06:51.355Z,82.95
2022-09-10T17:09:18.010Z,83.11
2022-09-10T17:11:44.500Z,83.82
2022-09-10T17:14:11.432Z,83.82
2022-09-10T17:16:40.288Z,85.20
2022-09-10T17:19:11.485Z,86.33
2022-09-10T17:21:40.272Z,87.55
2022-09-10T17:24:09.725Z,87.38
2022-09-10T17:26:37.208Z,87.03
2022-09-10T17:29:06.418Z,87.81
2022-09-10T17:31:33.972Z,87.66
2022-09-10T17:34:01.015Z,87.95
2022-09-10T17:36:28.234Z,88.59
2022-09-10T17:38:55.498Z,88.88
2022-09-10T17:41:23.991Z,88.40
2022-09-10T17:43:51.016Z,88.38
2022-09-10T17:46:21.246Z,87.82
2022-09-10T17:48:48.794Z,88.26
2022-09-10T17:51:24.052Z,88.83
2022-09-10T17:53:52.862Z,88.40
2022-09-10T17:56:20.264Z,88.82
2022-09-10T17:58:47.278Z,88.53
2022-09-10T18:01:36.191Z,88.20
2022-09-10T18:04:04.184Z,88.17
2022-09-10T18:06:32.286Z,88.51
2022-09-10T18:09:00.559Z,87.92
2022-09-10T18:11:29.995Z,88.28
2022-09-10T18:13:58.016Z,88.08
2022-09-10T18:16:27.735Z,88.17
2022-09-10T18:19:00.577Z,87.94
2022-09-10T18:21:31.192Z,87.98
2022-09-10T18:24:03.185Z,88.86
2022-09-10T18:26:32.126Z,88.70
2022-09-10T18:29:04.957Z,87.67
2022-09-10T18:31:34.229Z,88.16
2022-09-10T18:34:01.434Z,88.47
2022-09-10T18:36:31.424Z,88.49
2022-09-10T18:39:01.758Z,88.23
2022-09-10T18:41:31.144Z,88.27
2022-09-10T18:44:00.678Z,88.28
2022-09-10T18:46:28.965Z,87.65
2022-09-10T18:48:55.747Z,89.56
2022-09-10T18:51:24.675Z,87.95
2022-09-10T18:53:58.510Z,87.50
2022-09-10T18:56:27.265Z,87.07
2022-09-10T18:59:01.431Z,86.21
2022-09-10T19:01:29.804Z,87.16
2022-09-10T19:03:59.824Z,87.89
2022-09-10T19:06:31.863Z,87.84
2022-09-10T19:09:08.280Z,88.11
2022-09-10T19:11:43.654Z,88.67
2022-09-10T19:14:18.477Z,88.00
2022-09-10T19:16:49.361Z,87.35
2022-09-10T19:19:19.738Z,87.79
2022-09-10T19:21:48.183Z,87.51
2022-09-10T19:24:32.922Z,87.38
2022-09-10T19:27:18.104Z,88.13
2022-09-10T19:29:47.100Z,87.66
2022-09-10T19:32:15.052Z,88.11
2022-09-10T19:34:41.541Z,88.37
2022-09-10T19:37:07.971Z,88.02
2022-09-10T19:39:34.543Z,87.26
2022-09-10T19:42:01.070Z,86.11
2022-09-10T19:44:28.083Z,85.28
2022-09-10T19:46:55.209Z,85.48
2022-09-10T19:49:22.251Z,84.56
2022-09-10T19:51:48.725Z,84.11
2022-09-10T19:54:15.140Z,84.22
2022-09-10T19:56:42.551Z,84.10
2022-09-10T19:59:09.987Z,84.08
2022-09-10T20:01:39.878Z,84.24
2022-09-10T20:04:10.248Z,83.89
2022-09-10T20:06:37.544Z,84.54
2022-09-10T20:09:05.993Z,84.68
2022-09-10T20:11:34.990Z,84.58
2022-09-10T20:14:13.210Z,84.33
2022-09-10T20:16:42.837Z,83.99
2022-09-10T20:19:11.682Z,84.01
2022-09-10T20:21:38.422Z,84.22
2022-09-10T20:24:07.542Z,84.91
2022-09-10T20:26:38.111Z,85.44
2022-09-10T20:29:12.859Z,84.93
2022-09-10T20:31:40.951Z,84.92
2022-09-10T20:34:12.100Z,85.99
2022-09-10T20:36:38.907Z,86.12
2022-09-10T20:39:06.568Z,86.95
2022-09-10T20:41:33.184Z,88.02
2022-09-10T20:44:01.280Z,88.40
2022-09-10T20:46:30.116Z,88.88
2022-09-10T20:49:02.849Z,89.20
2022-09-10T20:51:32.740Z,89.51
2022-09-10T20:53:59.333Z,90.23
2022-09-10T20:56:25.974Z,91.16
2022-09-10T20:58:52.580Z,90.11
2022-09-10T21:01:21.801Z,90.64
2022-09-10T21:03:49.853Z,91.09
2022-09-10T21:06:21.392Z,91.18
2022-09-10T21:08:48.070Z,91.55
2022-09-10T21:11:17.568Z,91.21
2022-09-10T21:13:47.013Z,92.24
2022-09-10T21:16:19.262Z,93.04
2022-09-10T21:18:55.035Z,93.04
2022-09-10T21:21:25.411Z,94.28
2022-09-10T21:23:56.195Z,94.72
2022-09-10T21:26:26.719Z,94.35
2022-09-10T21:28:58.689Z,95.60
2022-09-10T21:31:27.200Z,95.51
2022-09-10T21:34:00.606Z,95.35
2022-09-10T21:36:30.606Z,94.61
2022-09-10T21:38:59.802Z,93.84
2022-09-10T21:41:33.648Z,94.13
2022-09-10T21:44:00.669Z,94.18
2022-09-10T21:46:27.707Z,93.95
2022-09-10T21:48:55.093Z,93.26
2022-09-10T21:51:22.485Z,93.26
2022-09-10T21:53:52.709Z,92.82
2022-09-10T21:56:19.379Z,92.42
2022-09-10T21:58:45.916Z,93.01
